sensor_id;sensor_type;location;lat;lon;timestamp;P1;durP1;ratioP1;P2;durP2;ratioP2
10389;SDS011;5241;47.830;12.972;2023-06-26T00:02:15;6.53;;;5.83;;
10389;SDS011;5241;47.830;12.972;2023-06-26T00:04:42;7.27;;;6.33;;
10389;SDS011;5241;47.830;12.972;2023-06-26T00:07:08;7.50;;;6.60;;
10389;SDS011;5241;47.830;12.972;2023-06-26T00:09:33;8.70;;;6.50;;
10389;SDS011;5241;47.830;12.972;2023-06-26T00:11:59;10.37;;;6.70;;
10389;SDS011;5241;47.830;12.972;2023-06-26T00:14:25;7.63;;;6.47;;
10389;SDS011;5241;47.830;12.972;2023-06-26T00:16:51;8.13;;;7.17;;
10389;SDS011;5241;47.830;12.972;2023-06-26T00:19:17;7.23;;;6.23;;
10389;SDS011;5241;47.830;12.972;2023-06-26T00:21:43;7.30;;;6.60;;
10389;SDS011;5241;47.830;12.972;2023-06-26T00:24:13;10.27;;;7.00;;
10389;SDS011;5241;47.830;12.972;2023-06-26T00:26:39;7.67;;;6.40;;
10389;SDS011;5241;47.830;12.972;2023-06-26T00:29:04;8.87;;;6.53;;
10389;SDS011;5241;47.830;12.972;2023-06-26T00:31:30;7.83;;;6.73;;
10389;SDS011;5241;47.830;12.972;2023-06-26T00:33:55;8.40;;;6.83;;
10389;SDS011;5241;47.830;12.972;2023-06-26T00:36:21;7.77;;;6.33;;
10389;SDS011;5241;47.830;12.972;2023-06-26T00:38:51;8.77;;;6.73;;
10389;SDS011;5241;47.830;12.972;2023-06-26T00:41:17;9.07;;;6.17;;
10389;SDS011;5241;47.830;12.972;2023-06-26T00:43:42;7.77;;;6.40;;
10389;SDS011;5241;47.830;12.972;2023-06-26T00:46:09;7.37;;;6.57;;
10389;SDS011;5241;47.830;12.972;2023-06-26T00:48:37;7.43;;;6.63;;
10389;SDS011;5241;47.830;12.972;2023-06-26T00:51:03;7.10;;;6.40;;
10389;SDS011;5241;47.830;12.972;2023-06-26T00:53:30;7.43;;;6.17;;
10389;SDS011;5241;47.830;12.972;2023-06-26T00:55:56;7.00;;;6.30;;
10389;SDS011;5241;47.830;12.972;2023-06-26T00:58:22;7.83;;;6.57;;
10389;SDS011;5241;47.830;12.972;2023-06-26T01:00:50;8.57;;;6.40;;
10389;SDS011;5241;47.830;12.972;2023-06-26T01:03:16;7.37;;;6.57;;
10389;SDS011;5241;47.830;12.972;2023-06-26T01:05:42;6.97;;;6.27;;
10389;SDS011;5241;47.830;12.972;2023-06-26T01:08:10;6.93;;;5.93;;
10389;SDS011;5241;47.830;12.972;2023-06-26T01:10:37;6.73;;;6.03;;
10389;SDS011;5241;47.830;12.972;2023-06-26T01:13:03;7.10;;;6.17;;
10389;SDS011;5241;47.830;12.972;2023-06-26T01:15:29;8.17;;;5.83;;
10389;SDS011;5241;47.830;12.972;2023-06-26T01:17:55;7.00;;;5.97;;
10389;SDS011;5241;47.830;12.972;2023-06-26T01:20:24;6.90;;;6.20;;
10389;SDS011;5241;47.830;12.972;2023-06-26T01:25:29;7.40;;;6.30;;
10389;SDS011;5241;47.830;12.972;2023-06-26T01:28:03;7.93;;;6.63;;
10389;SDS011;5241;47.830;12.972;2023-06-26T01:30:32;7.10;;;6.23;;
10389;SDS011;5241;47.830;12.972;2023-06-26T01:32:59;7.77;;;6.63;;
10389;SDS011;5241;47.830;12.972;2023-06-26T01:35:26;7.00;;;6.30;;
10389;SDS011;5241;47.830;12.972;2023-06-26T01:37:52;7.80;;;7.00;;
10389;SDS011;5241;47.830;12.972;2023-06-26T01:40:18;8.23;;;5.97;;
10389;SDS011;5241;47.830;12.972;2023-06-26T01:42:43;7.60;;;6.37;;
10389;SDS011;5241;47.830;12.972;2023-06-26T01:45:18;7.53;;;6.43;;
10389;SDS011;5241;47.830;12.972;2023-06-26T01:47:51;8.33;;;6.70;;
10389;SDS011;5241;47.830;12.972;2023-06-26T01:50:26;6.60;;;5.90;;
10389;SDS011;5241;47.830;12.972;2023-06-26T01:55:49;8.23;;;6.90;;
10389;SDS011;5241;47.830;12.972;2023-06-26T01:58:19;7.87;;;6.57;;
10389;SDS011;5241;47.830;12.972;2023-06-26T02:00:47;8.33;;;6.63;;
10389;SDS011;5241;47.830;12.972;2023-06-26T02:03:13;7.67;;;6.67;;
10389;SDS011;5241;47.830;12.972;2023-06-26T02:05:39;8.77;;;6.70;;
10389;SDS011;5241;47.830;12.972;2023-06-26T02:08:04;7.47;;;6.60;;
10389;SDS011;5241;47.830;12.972;2023-06-26T02:10:30;7.83;;;6.27;;
10389;SDS011;5241;47.830;12.972;2023-06-26T02:12:56;7.03;;;6.27;;
10389;SDS011;5241;47.830;12.972;2023-06-26T02:15:21;7.00;;;6.27;;
10389;SDS011;5241;47.830;12.972;2023-06-26T02:17:47;7.03;;;6.13;;
10389;SDS011;5241;47.830;12.972;2023-06-26T02:20:13;7.90;;;6.63;;
10389;SDS011;5241;47.830;12.972;2023-06-26T02:22:40;8.03;;;7.23;;
10389;SDS011;5241;47.830;12.972;2023-06-26T02:25:06;7.03;;;6.30;;
10389;SDS011;5241;47.830;12.972;2023-06-26T02:27:32;7.03;;;6.20;;
10389;SDS011;5241;47.830;12.972;2023-06-26T02:29:57;7.53;;;6.67;;
10389;SDS011;5241;47.830;12.972;2023-06-26T02:32:23;8.10;;;7.07;;
10389;SDS011;5241;47.830;12.972;2023-06-26T02:34:48;8.07;;;6.67;;
10389;SDS011;5241;47.830;12.972;2023-06-26T02:37:16;7.73;;;6.80;;
10389;SDS011;5241;47.830;12.972;2023-06-26T02:39:41;8.17;;;6.60;;
10389;SDS011;5241;47.830;12.972;2023-06-26T02:42:07;8.83;;;7.27;;
10389;SDS011;5241;47.830;12.972;2023-06-26T02:44:32;8.37;;;7.13;;
10389;SDS011;5241;47.830;12.972;2023-06-26T02:46:58;7.83;;;6.53;;
10389;SDS011;5241;47.830;12.972;2023-06-26T02:49:23;7.30;;;6.60;;
10389;SDS011;5241;47.830;12.972;2023-06-26T02:51:49;10.37;;;7.10;;
10389;SDS011;5241;47.830;12.972;2023-06-26T02:54:14;7.83;;;7.03;;
10389;SDS011;5241;47.830;12.972;2023-06-26T02:56:40;7.63;;;6.83;;
10389;SDS011;5241;47.830;12.972;2023-06-26T02:59:05;9.37;;;7.20;;
10389;SDS011;5241;47.830;12.972;2023-06-26T03:01:31;8.17;;;7.37;;
10389;SDS011;5241;47.830;12.972;2023-06-26T03:03:56;8.73;;;7.80;;
10389;SDS011;5241;47.830;12.972;2023-06-26T03:06:22;7.97;;;7.17;;
10389;SDS011;5241;47.830;12.972;2023-06-26T03:08:47;9.77;;;7.50;;
10389;SDS011;5241;47.830;12.972;2023-06-26T03:11:13;8.17;;;7.00;;
10389;SDS011;5241;47.830;12.972;2023-06-26T03:13:39;8.77;;;7.50;;
10389;SDS011;5241;47.830;12.972;2023-06-26T03:16:04;8.67;;;7.10;;
10389;SDS011;5241;47.830;12.972;2023-06-26T03:18:30;8.03;;;6.77;;
10389;SDS011;5241;47.830;12.972;2023-06-26T03:20:56;8.40;;;7.10;;
10389;SDS011;5241;47.830;12.972;2023-06-26T03:23:22;8.07;;;7.27;;
10389;SDS011;5241;47.830;12.972;2023-06-26T03:25:48;7.90;;;7.03;;
10389;SDS011;5241;47.830;12.972;2023-06-26T03:28:14;8.93;;;7.20;;
10389;SDS011;5241;47.830;12.972;2023-06-26T03:30:40;7.93;;;7.00;;
10389;SDS011;5241;47.830;12.972;2023-06-26T03:33:06;9.93;;;7.60;;
10389;SDS011;5241;47.830;12.972;2023-06-26T03:35:31;9.33;;;7.77;;
10389;SDS011;5241;47.830;12.972;2023-06-26T03:37:57;9.20;;;7.27;;
10389;SDS011;5241;47.830;12.972;2023-06-26T03:40:23;10.20;;;8.03;;
10389;SDS011;5241;47.830;12.972;2023-06-26T03:42:49;9.53;;;8.20;;
10389;SDS011;5241;47.830;12.972;2023-06-26T03:45:15;9.10;;;8.03;;
10389;SDS011;5241;47.830;12.972;2023-06-26T03:47:40;9.13;;;7.53;;
10389;SDS011;5241;47.830;12.972;2023-06-26T03:50:06;8.97;;;7.53;;
10389;SDS011;5241;47.830;12.972;2023-06-26T03:52:32;8.23;;;7.07;;
10389;SDS011;5241;47.830;12.972;2023-06-26T03:54:57;10.10;;;7.50;;
10389;SDS011;5241;47.830;12.972;2023-06-26T03:57:23;10.37;;;7.57;;
10389;SDS011;5241;47.830;12.972;2023-06-26T03:59:49;10.40;;;7.70;;
10389;SDS011;5241;47.830;12.972;2023-06-26T04:02:15;8.00;;;7.20;;
10389;SDS011;5241;47.830;12.972;2023-06-26T04:04:40;9.37;;;7.93;;
10389;SDS011;5241;47.830;12.972;2023-06-26T04:07:06;9.40;;;7.60;;
10389;SDS011;5241;47.830;12.972;2023-06-26T04:09:31;9.53;;;7.83;;
10389;SDS011;5241;47.830;12.972;2023-06-26T04:11:57;9.60;;;7.67;;
10389;SDS011;5241;47.830;12.972;2023-06-26T04:14:22;10.27;;;7.80;;
10389;SDS011;5241;47.830;12.972;2023-06-26T04:16:48;10.77;;;7.67;;
10389;SDS011;5241;47.830;12.972;2023-06-26T04:19:13;8.37;;;7.33;;
10389;SDS011;5241;47.830;12.972;2023-06-26T04:21:39;10.37;;;6.83;;
10389;SDS011;5241;47.830;12.972;2023-06-26T04:24:05;8.80;;;7.33;;
10389;SDS011;5241;47.830;12.972;2023-06-26T04:26:30;8.00;;;6.27;;
10389;SDS011;5241;47.830;12.972;2023-06-26T04:28:56;10.43;;;7.33;;
10389;SDS011;5241;47.830;12.972;2023-06-26T04:31:22;7.93;;;7.13;;
10389;SDS011;5241;47.830;12.972;2023-06-26T04:33:47;8.13;;;6.63;;
10389;SDS011;5241;47.830;12.972;2023-06-26T04:36:19;8.63;;;7.20;;
10389;SDS011;5241;47.830;12.972;2023-06-26T04:38:44;7.30;;;6.47;;
10389;SDS011;5241;47.830;12.972;2023-06-26T04:41:10;8.33;;;6.57;;
10389;SDS011;5241;47.830;12.972;2023-06-26T04:43:35;8.73;;;6.13;;
10389;SDS011;5241;47.830;12.972;2023-06-26T04:46:04;6.83;;;6.13;;
10389;SDS011;5241;47.830;12.972;2023-06-26T04:48:30;7.17;;;6.33;;
10389;SDS011;5241;47.830;12.972;2023-06-26T04:50:56;8.43;;;6.30;;
10389;SDS011;5241;47.830;12.972;2023-06-26T04:53:21;8.27;;;6.20;;
10389;SDS011;5241;47.830;12.972;2023-06-26T04:55:51;7.83;;;6.57;;
10389;SDS011;5241;47.830;12.972;2023-06-26T04:58:17;9.13;;;7.10;;
10389;SDS011;5241;47.830;12.972;2023-06-26T05:00:43;8.70;;;6.60;;
10389;SDS011;5241;47.830;12.972;2023-06-26T05:03:10;9.50;;;6.80;;
10389;SDS011;5241;47.830;12.972;2023-06-26T05:05:36;9.80;;;6.27;;
10389;SDS011;5241;47.830;12.972;2023-06-26T05:08:15;8.83;;;6.70;;
10389;SDS011;5241;47.830;12.972;2023-06-26T05:10:47;6.67;;;5.97;;
10389;SDS011;5241;47.830;12.972;2023-06-26T05:13:13;6.70;;;5.77;;
10389;SDS011;5241;47.830;12.972;2023-06-26T05:15:44;7.33;;;6.50;;
10389;SDS011;5241;47.830;12.972;2023-06-26T05:18:13;8.37;;;6.10;;
10389;SDS011;5241;47.830;12.972;2023-06-26T05:20:39;12.27;;;6.50;;
10389;SDS011;5241;47.830;12.972;2023-06-26T05:23:05;7.80;;;6.60;;
10389;SDS011;5241;47.830;12.972;2023-06-26T05:25:30;6.47;;;5.77;;
10389;SDS011;5241;47.830;12.972;2023-06-26T05:27:57;6.63;;;5.97;;
10389;SDS011;5241;47.830;12.972;2023-06-26T05:30:24;8.70;;;6.20;;
10389;SDS011;5241;47.830;12.972;2023-06-26T05:32:50;7.30;;;5.90;;
10389;SDS011;5241;47.830;12.972;2023-06-26T05:35:17;7.97;;;6.23;;
10389;SDS011;5241;47.830;12.972;2023-06-26T05:37:44;11.57;;;6.37;;
10389;SDS011;5241;47.830;12.972;2023-06-26T05:40:10;7.20;;;6.50;;
10389;SDS011;5241;47.830;12.972;2023-06-26T05:42:36;7.70;;;6.67;;
10389;SDS011;5241;47.830;12.972;2023-06-26T05:45:02;8.90;;;6.23;;
10389;SDS011;5241;47.830;12.972;2023-06-26T05:47:28;9.40;;;6.10;;
10389;SDS011;5241;47.830;12.972;2023-06-26T05:49:53;7.20;;;6.20;;
10389;SDS011;5241;47.830;12.972;2023-06-26T05:52:19;10.97;;;6.63;;
10389;SDS011;5241;47.830;12.972;2023-06-26T05:54:45;10.53;;;6.37;;
10389;SDS011;5241;47.830;12.972;2023-06-26T05:57:11;13.13;;;5.93;;
10389;SDS011;5241;47.830;12.972;2023-06-26T05:59:38;6.20;;;5.60;;
10389;SDS011;5241;47.830;12.972;2023-06-26T06:02:05;6.60;;;5.97;;
10389;SDS011;5241;47.830;12.972;2023-06-26T06:04:31;6.50;;;5.77;;
10389;SDS011;5241;47.830;12.972;2023-06-26T06:06:56;7.53;;;6.27;;
10389;SDS011;5241;47.830;12.972;2023-06-26T06:09:22;6.30;;;5.70;;
10389;SDS011;5241;47.830;12.972;2023-06-26T06:11:47;7.67;;;6.17;;
10389;SDS011;5241;47.830;12.972;2023-06-26T06:14:13;10.00;;;6.33;;
10389;SDS011;5241;47.830;12.972;2023-06-26T06:16:38;6.90;;;5.80;;
10389;SDS011;5241;47.830;12.972;2023-06-26T06:19:04;6.50;;;5.90;;
10389;SDS011;5241;47.830;12.972;2023-06-26T06:21:31;6.60;;;5.90;;
10389;SDS011;5241;47.830;12.972;2023-06-26T06:23:57;7.07;;;6.40;;
10389;SDS011;5241;47.830;12.972;2023-06-26T06:26:22;6.97;;;6.27;;
10389;SDS011;5241;47.830;12.972;2023-06-26T06:28:48;6.50;;;5.90;;
10389;SDS011;5241;47.830;12.972;2023-06-26T06:31:14;9.00;;;6.10;;
10389;SDS011;5241;47.830;12.972;2023-06-26T06:33:39;7.53;;;5.67;;
10389;SDS011;5241;47.830;12.972;2023-06-26T06:36:05;6.37;;;5.30;;
10389;SDS011;5241;47.830;12.972;2023-06-26T06:38:30;7.60;;;5.57;;
10389;SDS011;5241;47.830;12.972;2023-06-26T06:40:56;6.33;;;5.47;;
10389;SDS011;5241;47.830;12.972;2023-06-26T06:43:22;7.00;;;6.30;;
10389;SDS011;5241;47.830;12.972;2023-06-26T06:45:48;6.43;;;5.83;;
10389;SDS011;5241;47.830;12.972;2023-06-26T06:48:13;7.80;;;5.80;;
10389;SDS011;5241;47.830;12.972;2023-06-26T06:50:39;6.13;;;5.60;;
10389;SDS011;5241;47.830;12.972;2023-06-26T06:53:04;6.80;;;6.20;;
10389;SDS011;5241;47.830;12.972;2023-06-26T06:55:30;7.23;;;6.10;;
10389;SDS011;5241;47.830;12.972;2023-06-26T06:57:55;7.10;;;6.07;;
10389;SDS011;5241;47.830;12.972;2023-06-26T07:00:21;7.50;;;5.90;;
10389;SDS011;5241;47.830;12.972;2023-06-26T07:02:46;7.60;;;6.20;;
10389;SDS011;5241;47.830;12.972;2023-06-26T07:05:12;6.73;;;5.80;;
10389;SDS011;5241;47.830;12.972;2023-06-26T07:07:38;7.10;;;6.50;;
10389;SDS011;5241;47.830;12.972;2023-06-26T07:10:05;6.47;;;5.95;;
10389;SDS011;5241;47.830;12.972;2023-06-26T07:12:33;6.33;;;5.73;;
10389;SDS011;5241;47.830;12.972;2023-06-26T07:15:00;5.88;;;5.38;;
10389;SDS011;5241;47.830;12.972;2023-06-26T07:17:26;7.38;;;6.38;;
10389;SDS011;5241;47.830;12.972;2023-06-26T07:19:52;7.35;;;6.65;;
10389;SDS011;5241;47.830;12.972;2023-06-26T07:22:18;6.13;;;5.57;;
10389;SDS011;5241;47.830;12.972;2023-06-26T07:24:46;6.90;;;6.20;;
10389;SDS011;5241;47.830;12.972;2023-06-26T07:27:14;7.07;;;6.38;;
10389;SDS011;5241;47.830;12.972;2023-06-26T07:29:40;6.65;;;6.03;;
10389;SDS011;5241;47.830;12.972;2023-06-26T07:32:05;6.20;;;5.60;;
10389;SDS011;5241;47.830;12.972;2023-06-26T07:34:31;7.45;;;6.75;;
10389;SDS011;5241;47.830;12.972;2023-06-26T07:36:57;6.65;;;6.05;;
10389;SDS011;5241;47.830;12.972;2023-06-26T07:39:22;6.05;;;5.45;;
10389;SDS011;5241;47.830;12.972;2023-06-26T07:41:48;7.60;;;5.78;;
10389;SDS011;5241;47.830;12.972;2023-06-26T07:44:13;6.05;;;5.55;;
10389;SDS011;5241;47.830;12.972;2023-06-26T07:46:39;6.85;;;6.03;;
10389;SDS011;5241;47.830;12.972;2023-06-26T07:49:05;7.00;;;5.75;;
10389;SDS011;5241;47.830;12.972;2023-06-26T07:51:30;6.90;;;6.18;;
10389;SDS011;5241;47.830;12.972;2023-06-26T07:53:56;7.57;;;6.03;;
10389;SDS011;5241;47.830;12.972;2023-06-26T07:56:21;6.72;;;6.03;;
10389;SDS011;5241;47.830;12.972;2023-06-26T07:58:47;6.55;;;5.95;;
10389;SDS011;5241;47.830;12.972;2023-06-26T08:01:12;6.30;;;5.80;;
10389;SDS011;5241;47.830;12.972;2023-06-26T08:03:38;6.53;;;6.03;;
10389;SDS011;5241;47.830;12.972;2023-06-26T08:06:03;6.75;;;6.10;;
10389;SDS011;5241;47.830;12.972;2023-06-26T08:08:29;6.50;;;5.90;;
10389;SDS011;5241;47.830;12.972;2023-06-26T08:10:54;6.95;;;6.10;;
10389;SDS011;5241;47.830;12.972;2023-06-26T08:13:20;6.70;;;6.05;;
10389;SDS011;5241;47.830;12.972;2023-06-26T08:15:45;5.70;;;5.28;;
10389;SDS011;5241;47.830;12.972;2023-06-26T08:18:11;6.07;;;5.57;;
10389;SDS011;5241;47.830;12.972;2023-06-26T08:20:36;7.13;;;6.18;;
10389;SDS011;5241;47.830;12.972;2023-06-26T08:23:03;6.07;;;5.47;;
10389;SDS011;5241;47.830;12.972;2023-06-26T08:25:29;7.22;;;6.07;;
10389;SDS011;5241;47.830;12.972;2023-06-26T08:27:55;6.35;;;5.78;;
10389;SDS011;5241;47.830;12.972;2023-06-26T08:30:21;6.90;;;5.90;;
10389;SDS011;5241;47.830;12.972;2023-06-26T08:32:47;6.55;;;5.95;;
10389;SDS011;5241;47.830;12.972;2023-06-26T08:35:12;6.45;;;5.90;;
10389;SDS011;5241;47.830;12.972;2023-06-26T08:37:38;6.40;;;5.88;;
10389;SDS011;5241;47.830;12.972;2023-06-26T08:40:04;6.80;;;6.20;;
10389;SDS011;5241;47.830;12.972;2023-06-26T08:42:31;6.03;;;5.45;;
10389;SDS011;5241;47.830;12.972;2023-06-26T08:44:56;6.45;;;5.85;;
10389;SDS011;5241;47.830;12.972;2023-06-26T08:47:22;5.78;;;5.28;;
10389;SDS011;5241;47.830;12.972;2023-06-26T08:49:51;6.53;;;5.93;;
10389;SDS011;5241;47.830;12.972;2023-06-26T08:52:28;6.80;;;6.20;;
10389;SDS011;5241;47.830;12.972;2023-06-26T08:54:57;7.80;;;6.25;;
10389;SDS011;5241;47.830;12.972;2023-06-26T08:57:23;6.28;;;5.75;;
10389;SDS011;5241;47.830;12.972;2023-06-26T08:59:51;6.05;;;5.55;;
10389;SDS011;5241;47.830;12.972;2023-06-26T09:02:17;6.10;;;5.60;;
10389;SDS011;5241;47.830;12.972;2023-06-26T09:04:43;6.32;;;5.75;;
10389;SDS011;5241;47.830;12.972;2023-06-26T09:07:08;7.25;;;6.55;;
10389;SDS011;5241;47.830;12.972;2023-06-26T09:09:34;6.38;;;5.72;;
10389;SDS011;5241;47.830;12.972;2023-06-26T09:12:01;6.40;;;5.50;;
10389;SDS011;5241;47.830;12.972;2023-06-26T09:14:28;6.55;;;5.93;;
10389;SDS011;5241;47.830;12.972;2023-06-26T09:16:54;8.27;;;6.22;;
10389;SDS011;5241;47.830;12.972;2023-06-26T09:19:20;7.32;;;6.63;;
10389;SDS011;5241;47.830;12.972;2023-06-26T09:21:46;6.93;;;6.32;;
10389;SDS011;5241;47.830;12.972;2023-06-26T09:24:14;6.95;;;6.25;;
10389;SDS011;5241;47.830;12.972;2023-06-26T09:26:41;6.78;;;6.18;;
10389;SDS011;5241;47.830;12.972;2023-06-26T09:29:08;7.43;;;6.82;;
10389;SDS011;5241;47.830;12.972;2023-06-26T09:31:37;6.78;;;6.18;;
10389;SDS011;5241;47.830;12.972;2023-06-26T09:34:03;6.70;;;6.13;;
10389;SDS011;5241;47.830;12.972;2023-06-26T09:36:30;6.78;;;6.18;;
10389;SDS011;5241;47.830;12.972;2023-06-26T09:38:57;6.45;;;5.95;;
10389;SDS011;5241;47.830;12.972;2023-06-26T09:41:24;7.43;;;6.72;;
10389;SDS011;5241;47.830;12.972;2023-06-26T09:43:50;6.63;;;6.07;;
10389;SDS011;5241;47.830;12.972;2023-06-26T09:46:17;6.35;;;5.80;;
10389;SDS011;5241;47.830;12.972;2023-06-26T09:48:49;6.95;;;6.28;;
10389;SDS011;5241;47.830;12.972;2023-06-26T09:51:22;6.57;;;5.97;;
10389;SDS011;5241;47.830;12.972;2023-06-26T09:53:48;6.97;;;6.28;;
10389;SDS011;5241;47.830;12.972;2023-06-26T09:56:17;6.85;;;6.25;;
10389;SDS011;5241;47.830;12.972;2023-06-26T09:58:43;6.93;;;6.20;;
10389;SDS011;5241;47.830;12.972;2023-06-26T10:01:09;6.60;;;6.10;;
10389;SDS011;5241;47.830;12.972;2023-06-26T10:03:35;6.30;;;5.80;;
10389;SDS011;5241;47.830;12.972;2023-06-26T10:06:02;6.97;;;6.38;;
10389;SDS011;5241;47.830;12.972;2023-06-26T10:08:28;7.53;;;6.85;;
10389;SDS011;5241;47.830;12.972;2023-06-26T10:10:55;6.70;;;6.10;;
10389;SDS011;5241;47.830;12.972;2023-06-26T10:13:23;5.90;;;5.40;;
10389;SDS011;5241;47.830;12.972;2023-06-26T10:15:53;6.13;;;5.53;;
10389;SDS011;5241;47.830;12.972;2023-06-26T10:18:24;6.10;;;5.50;;
10389;SDS011;5241;47.830;12.972;2023-06-26T10:20:50;6.35;;;5.85;;
10389;SDS011;5241;47.830;12.972;2023-06-26T10:23:20;5.97;;;5.47;;
10389;SDS011;5241;47.830;12.972;2023-06-26T10:25:48;6.38;;;5.78;;
10389;SDS011;5241;47.830;12.972;2023-06-26T10:28:17;6.03;;;5.53;;
10389;SDS011;5241;47.830;12.972;2023-06-26T10:30:46;6.28;;;5.68;;
10389;SDS011;5241;47.830;12.972;2023-06-26T10:33:15;6.18;;;5.68;;
10389;SDS011;5241;47.830;12.972;2023-06-26T10:35:44;6.18;;;5.68;;
10389;SDS011;5241;47.830;12.972;2023-06-26T10:38:10;5.70;;;5.20;;
10389;SDS011;5241;47.830;12.972;2023-06-26T10:40:40;5.65;;;5.18;;
10389;SDS011;5241;47.830;12.972;2023-06-26T10:43:10;6.55;;;5.95;;
10389;SDS011;5241;47.830;12.972;2023-06-26T10:45:43;6.10;;;5.60;;
10389;SDS011;5241;47.830;12.972;2023-06-26T10:48:19;6.13;;;5.63;;
10389;SDS011;5241;47.830;12.972;2023-06-26T10:50:48;5.85;;;5.35;;
10389;SDS011;5241;47.830;12.972;2023-06-26T10:56:00;6.43;;;5.93;;
10389;SDS011;5241;47.830;12.972;2023-06-26T10:58:33;5.43;;;5.03;;
10389;SDS011;5241;47.830;12.972;2023-06-26T11:01:22;5.85;;;5.35;;
10389;SDS011;5241;47.830;12.972;2023-06-26T11:03:49;5.78;;;5.32;;
10389;SDS011;5241;47.830;12.972;2023-06-26T11:06:21;5.40;;;4.90;;
10389;SDS011;5241;47.830;12.972;2023-06-26T11:11:18;6.10;;;5.50;;
10389;SDS011;5241;47.830;12.972;2023-06-26T11:13:44;5.18;;;4.78;;
10389;SDS011;5241;47.830;12.972;2023-06-26T11:16:11;5.85;;;5.35;;
10389;SDS011;5241;47.830;12.972;2023-06-26T11:18:38;5.65;;;5.15;;
10389;SDS011;5241;47.830;12.972;2023-06-26T11:21:13;5.72;;;5.13;;
10389;SDS011;5241;47.830;12.972;2023-06-26T11:23:39;6.82;;;5.78;;
10389;SDS011;5241;47.830;12.972;2023-06-26T11:26:15;7.05;;;5.30;;
10389;SDS011;5241;47.830;12.972;2023-06-26T11:28:51;6.30;;;5.28;;
10389;SDS011;5241;47.830;12.972;2023-06-26T11:31:31;6.50;;;5.90;;
10389;SDS011;5241;47.830;12.972;2023-06-26T11:33:58;5.20;;;4.70;;
10389;SDS011;5241;47.830;12.972;2023-06-26T11:36:28;5.70;;;5.20;;
10389;SDS011;5241;47.830;12.972;2023-06-26T11:38:55;5.85;;;5.35;;
10389;SDS011;5241;47.830;12.972;2023-06-26T11:41:21;5.75;;;5.25;;
10389;SDS011;5241;47.830;12.972;2023-06-26T11:43:48;4.93;;;4.53;;
10389;SDS011;5241;47.830;12.972;2023-06-26T11:46:16;5.78;;;4.75;;
10389;SDS011;5241;47.830;12.972;2023-06-26T11:48:42;5.93;;;5.43;;
10389;SDS011;5241;47.830;12.972;2023-06-26T11:51:08;5.53;;;5.13;;
10389;SDS011;5241;47.830;12.972;2023-06-26T11:53:39;5.50;;;5.05;;
10389;SDS011;5241;47.830;12.972;2023-06-26T11:56:12;5.85;;;5.43;;
10389;SDS011;5241;47.830;12.972;2023-06-26T12:01:35;5.72;;;5.22;;
10389;SDS011;5241;47.830;12.972;2023-06-26T12:04:04;5.65;;;5.25;;
10389;SDS011;5241;47.830;12.972;2023-06-26T12:06:31;5.90;;;5.40;;
10389;SDS011;5241;47.830;12.972;2023-06-26T12:08:59;7.25;;;5.20;;
10389;SDS011;5241;47.830;12.972;2023-06-26T12:11:27;5.65;;;5.25;;
10389;SDS011;5241;47.830;12.972;2023-06-26T12:13:54;6.05;;;5.55;;
10389;SDS011;5241;47.830;12.972;2023-06-26T12:16:20;5.88;;;5.45;;
10389;SDS011;5241;47.830;12.972;2023-06-26T12:18:46;5.65;;;5.15;;
10389;SDS011;5241;47.830;12.972;2023-06-26T12:21:27;6.10;;;5.60;;
10389;SDS011;5241;47.830;12.972;2023-06-26T12:24:02;6.03;;;5.53;;
10389;SDS011;5241;47.830;12.972;2023-06-26T12:26:52;6.20;;;5.70;;
10389;SDS011;5241;47.830;12.972;2023-06-26T12:29:20;6.32;;;5.82;;
10389;SDS011;5241;47.830;12.972;2023-06-26T12:31:52;6.07;;;5.53;;
10389;SDS011;5241;47.830;12.972;2023-06-26T12:34:27;5.55;;;5.05;;
10389;SDS011;5241;47.830;12.972;2023-06-26T12:37:01;5.78;;;5.30;;
10389;SDS011;5241;47.830;12.972;2023-06-26T12:39:28;5.40;;;4.90;;
10389;SDS011;5241;47.830;12.972;2023-06-26T12:41:56;6.28;;;5.72;;
10389;SDS011;5241;47.830;12.972;2023-06-26T12:44:25;5.85;;;5.45;;
10389;SDS011;5241;47.830;12.972;2023-06-26T12:46:56;6.07;;;5.47;;
10389;SDS011;5241;47.830;12.972;2023-06-26T12:49:29;5.20;;;4.80;;
10389;SDS011;5241;47.830;12.972;2023-06-26T12:51:57;5.50;;;5.10;;
10389;SDS011;5241;47.830;12.972;2023-06-26T12:54:24;5.95;;;5.45;;
10389;SDS011;5241;47.830;12.972;2023-06-26T12:56:49;5.90;;;5.50;;
10389;SDS011;5241;47.830;12.972;2023-06-26T12:59:15;6.10;;;5.50;;
10389;SDS011;5241;47.830;12.972;2023-06-26T13:01:41;5.35;;;4.88;;
10389;SDS011;5241;47.830;12.972;2023-06-26T13:04:07;5.95;;;5.55;;
10389;SDS011;5241;47.830;12.972;2023-06-26T13:06:33;5.55;;;5.15;;
10389;SDS011;5241;47.830;12.972;2023-06-26T13:08:59;6.43;;;5.90;;
10389;SDS011;5241;47.830;12.972;2023-06-26T13:11:24;6.20;;;5.60;;
10389;SDS011;5241;47.830;12.972;2023-06-26T13:13:50;6.13;;;5.68;;
10389;SDS011;5241;47.830;12.972;2023-06-26T13:16:16;5.97;;;5.50;;
10389;SDS011;5241;47.830;12.972;2023-06-26T13:18:43;6.38;;;5.78;;
10389;SDS011;5241;47.830;12.972;2023-06-26T13:21:09;5.95;;;5.45;;
10389;SDS011;5241;47.830;12.972;2023-06-26T13:23:34;5.88;;;5.43;;
10389;SDS011;5241;47.830;12.972;2023-06-26T13:26:00;5.93;;;5.47;;
10389;SDS011;5241;47.830;12.972;2023-06-26T13:28:25;5.97;;;5.47;;
10389;SDS011;5241;47.830;12.972;2023-06-26T13:30:51;5.68;;;5.05;;
10389;SDS011;5241;47.830;12.972;2023-06-26T13:33:16;5.75;;;5.22;;
10389;SDS011;5241;47.830;12.972;2023-06-26T13:35:42;5.35;;;4.85;;
10389;SDS011;5241;47.830;12.972;2023-06-26T13:38:07;5.53;;;5.13;;
10389;SDS011;5241;47.830;12.972;2023-06-26T13:40:33;5.75;;;5.32;;
10389;SDS011;5241;47.830;12.972;2023-06-26T13:42:58;5.30;;;4.90;;
10389;SDS011;5241;47.830;12.972;2023-06-26T13:45:25;5.90;;;5.38;;
10389;SDS011;5241;47.830;12.972;2023-06-26T13:47:50;5.45;;;5.05;;
10389;SDS011;5241;47.830;12.972;2023-06-26T13:50:16;6.30;;;5.70;;
10389;SDS011;5241;47.830;12.972;2023-06-26T13:52:41;5.72;;;5.32;;
10389;SDS011;5241;47.830;12.972;2023-06-26T13:55:07;5.07;;;4.68;;
10389;SDS011;5241;47.830;12.972;2023-06-26T13:57:33;4.80;;;4.47;;
10389;SDS011;5241;47.830;12.972;2023-06-26T13:59:58;5.50;;;5.10;;
10389;SDS011;5241;47.830;12.972;2023-06-26T14:02:24;5.03;;;4.68;;
10389;SDS011;5241;47.830;12.972;2023-06-26T14:04:49;5.00;;;4.63;;
10389;SDS011;5241;47.830;12.972;2023-06-26T14:07:15;5.75;;;5.25;;
10389;SDS011;5241;47.830;12.972;2023-06-26T14:09:40;6.07;;;5.57;;
10389;SDS011;5241;47.830;12.972;2023-06-26T14:12:07;6.57;;;5.97;;
10389;SDS011;5241;47.830;12.972;2023-06-26T14:14:33;5.60;;;5.20;;
10389;SDS011;5241;47.830;12.972;2023-06-26T14:16:58;6.05;;;5.55;;
10389;SDS011;5241;47.830;12.972;2023-06-26T14:19:24;6.32;;;5.25;;
10389;SDS011;5241;47.830;12.972;2023-06-26T14:21:51;6.15;;;5.65;;
10389;SDS011;5241;47.830;12.972;2023-06-26T14:24:16;5.47;;;4.97;;
10389;SDS011;5241;47.830;12.972;2023-06-26T14:26:42;5.10;;;4.70;;
10389;SDS011;5241;47.830;12.972;2023-06-26T14:29:08;5.85;;;5.25;;
10389;SDS011;5241;47.830;12.972;2023-06-26T14:31:33;5.40;;;4.88;;
10389;SDS011;5241;47.830;12.972;2023-06-26T14:33:59;5.40;;;4.97;;
10389;SDS011;5241;47.830;12.972;2023-06-26T14:36:25;5.40;;;5.00;;
10389;SDS011;5241;47.830;12.972;2023-06-26T14:38:51;4.80;;;4.43;;
10389;SDS011;5241;47.830;12.972;2023-06-26T14:41:17;5.95;;;4.78;;
10389;SDS011;5241;47.830;12.972;2023-06-26T14:43:43;5.35;;;4.80;;
10389;SDS011;5241;47.830;12.972;2023-06-26T14:46:10;5.63;;;4.95;;
10389;SDS011;5241;47.830;12.972;2023-06-26T14:48:36;5.05;;;4.63;;
10389;SDS011;5241;47.830;12.972;2023-06-26T14:51:01;5.50;;;5.00;;
10389;SDS011;5241;47.830;12.972;2023-06-26T14:53:27;5.30;;;4.72;;
10389;SDS011;5241;47.830;12.972;2023-06-26T14:55:52;4.80;;;4.45;;
10389;SDS011;5241;47.830;12.972;2023-06-26T14:58:18;5.45;;;4.95;;
10389;SDS011;5241;47.830;12.972;2023-06-26T15:00:43;4.78;;;4.38;;